Portada
METAR-TAF:

METAR-TAF

Aeroports :

Hostomel, Ucraïna

latitud: 50-36-01N, longitud: 030-11-37E, altitud: 157 m

Observació

L'informe es va fer fa 11 minuts, a les 16:00 UTC
Vent 8 kt del Sud
Temperatura 2°C
Humitat 87%
Pressió 1009 hPa
Visibilitat 10 km o més

METAR: UKKM 091600Z AUTO 19004MPS 9999 // NCD 02/M00 Q1009

Hora: 18:11 (16:11 UTC)

Pronòstic

L'informe es va fer fa 5 hores i 7 minuts, a les 11:04 UTC
Pronòstic vàlid del 09 a les 12 UTC al 10 a les 12 UTC
Vent 10 kt del Sud
Visibilitat 10 km o més
Cel ennuvolat a una alçada de 2000 ft
Temporalment
l' 09 a les 18 UTC al 10 a les 07 UTC
Visibilitat: 1000 m
Cel ennuvolat a una alçada de 300 ft
boirina

TAF: UKKM 091104Z 0912/1012 19005MPS 9999 BKN020 TX07/0912Z TN00/1005Z TEMPO 0918/1007 1000 BR BKN003

Observacions i pronòstics meteorològics de més de 4000 aeroports (METAR i TAF).

Les estacions disponibles són els punts grocs i vermells al mapa.

Posi el ratolí al punt desitjat per veure el nom de l'estació.

Feu clic per veure les observacions i els pronòstics meteorològics.

Per canviar el mapa: feu clic els botons verds amb una creu de color negre per apropar; al botó verd amb un guió per allunyar la imatge; o en les fletxes verdes per a mapes adjacents.


METAR-TAF: